sensor_id;sensor_type;location;lat;lon;timestamp;P1;durP1;ratioP1;P2;durP2;ratioP2
9160;SDS011;4615;51.340;8.288;2024-03-08T00:01:22;20.15;;;18.02;;
9160;SDS011;4615;51.340;8.288;2024-03-08T00:03:48;19.47;;;17.47;;
9160;SDS011;4615;51.340;8.288;2024-03-08T00:06:15;20.38;;;18.35;;
9160;SDS011;4615;51.340;8.288;2024-03-08T00:08:41;20.38;;;18.15;;
9160;SDS011;4615;51.340;8.288;2024-03-08T00:11:08;21.20;;;19.00;;
9160;SDS011;4615;51.340;8.288;2024-03-08T00:13:34;21.52;;;18.75;;
9160;SDS011;4615;51.340;8.288;2024-03-08T00:16:01;20.83;;;18.40;;
9160;SDS011;4615;51.340;8.288;2024-03-08T00:18:29;21.50;;;19.20;;
9160;SDS011;4615;51.340;8.288;2024-03-08T00:20:55;21.50;;;18.88;;
9160;SDS011;4615;51.340;8.288;2024-03-08T00:23:22;20.60;;;18.50;;
9160;SDS011;4615;51.340;8.288;2024-03-08T00:25:49;21.38;;;18.38;;
9160;SDS011;4615;51.340;8.288;2024-03-08T00:28:16;20.67;;;18.50;;
9160;SDS011;4615;51.340;8.288;2024-03-08T00:30:44;21.20;;;19.00;;
9160;SDS011;4615;51.340;8.288;2024-03-08T00:33:10;22.17;;;19.88;;
9160;SDS011;4615;51.340;8.288;2024-03-08T00:35:38;21.85;;;19.00;;
9160;SDS011;4615;51.340;8.288;2024-03-08T00:38:04;21.73;;;19.38;;
9160;SDS011;4615;51.340;8.288;2024-03-08T00:40:31;21.83;;;19.53;;
9160;SDS011;4615;51.340;8.288;2024-03-08T00:42:57;21.90;;;19.50;;
9160;SDS011;4615;51.340;8.288;2024-03-08T00:45:23;21.23;;;18.98;;
9160;SDS011;4615;51.340;8.288;2024-03-08T00:47:50;20.95;;;18.75;;
9160;SDS011;4615;51.340;8.288;2024-03-08T00:50:16;21.38;;;19.13;;
9160;SDS011;4615;51.340;8.288;2024-03-08T00:52:44;22.27;;;19.90;;
9160;SDS011;4615;51.340;8.288;2024-03-08T00:55:11;21.20;;;19.00;;
9160;SDS011;4615;51.340;8.288;2024-03-08T00:57:38;21.88;;;19.45;;
9160;SDS011;4615;51.340;8.288;2024-03-08T01:00:05;22.55;;;19.80;;
9160;SDS011;4615;51.340;8.288;2024-03-08T01:02:34;22.15;;;19.75;;
9160;SDS011;4615;51.340;8.288;2024-03-08T01:05:01;21.70;;;19.45;;
9160;SDS011;4615;51.340;8.288;2024-03-08T01:07:27;21.92;;;19.65;;
9160;SDS011;4615;51.340;8.288;2024-03-08T01:09:55;21.70;;;19.45;;
9160;SDS011;4615;51.340;8.288;2024-03-08T01:12:22;22.10;;;19.70;;
9160;SDS011;4615;51.340;8.288;2024-03-08T01:14:48;21.95;;;19.60;;
9160;SDS011;4615;51.340;8.288;2024-03-08T01:17:15;21.60;;;19.30;;
9160;SDS011;4615;51.340;8.288;2024-03-08T01:19:42;22.70;;;19.73;;
9160;SDS011;4615;51.340;8.288;2024-03-08T01:22:09;22.27;;;19.98;;
9160;SDS011;4615;51.340;8.288;2024-03-08T01:24:36;21.23;;;18.98;;
9160;SDS011;4615;51.340;8.288;2024-03-08T01:27:04;22.90;;;20.40;;
9160;SDS011;4615;51.340;8.288;2024-03-08T01:29:30;21.63;;;19.33;;
9160;SDS011;4615;51.340;8.288;2024-03-08T01:31:57;21.52;;;19.13;;
9160;SDS011;4615;51.340;8.288;2024-03-08T01:34:26;21.73;;;19.53;;
9160;SDS011;4615;51.340;8.288;2024-03-08T01:36:53;22.73;;;20.20;;
9160;SDS011;4615;51.340;8.288;2024-03-08T01:39:20;21.40;;;19.15;;
9160;SDS011;4615;51.340;8.288;2024-03-08T01:41:47;22.13;;;19.83;;
9160;SDS011;4615;51.340;8.288;2024-03-08T01:44:15;21.98;;;19.77;;
9160;SDS011;4615;51.340;8.288;2024-03-08T01:46:42;22.63;;;19.67;;
9160;SDS011;4615;51.340;8.288;2024-03-08T01:49:09;22.30;;;19.90;;
9160;SDS011;4615;51.340;8.288;2024-03-08T01:51:36;23.20;;;19.77;;
9160;SDS011;4615;51.340;8.288;2024-03-08T01:54:03;21.85;;;19.55;;
9160;SDS011;4615;51.340;8.288;2024-03-08T01:56:30;21.92;;;19.63;;
9160;SDS011;4615;51.340;8.288;2024-03-08T01:58:57;21.95;;;19.55;;
9160;SDS011;4615;51.340;8.288;2024-03-08T02:01:25;22.88;;;20.05;;
9160;SDS011;4615;51.340;8.288;2024-03-08T02:03:51;22.80;;;20.30;;
9160;SDS011;4615;51.340;8.288;2024-03-08T02:06:18;22.52;;;20.20;;
9160;SDS011;4615;51.340;8.288;2024-03-08T02:08:44;24.17;;;20.25;;
9160;SDS011;4615;51.340;8.288;2024-03-08T02:11:11;21.50;;;19.20;;
9160;SDS011;4615;51.340;8.288;2024-03-08T02:13:37;22.63;;;20.23;;
9160;SDS011;4615;51.340;8.288;2024-03-08T02:16:04;22.48;;;19.70;;
9160;SDS011;4615;51.340;8.288;2024-03-08T02:18:34;23.03;;;20.03;;
9160;SDS011;4615;51.340;8.288;2024-03-08T02:21:02;22.10;;;19.80;;
9160;SDS011;4615;51.340;8.288;2024-03-08T02:23:29;21.90;;;19.60;;
9160;SDS011;4615;51.340;8.288;2024-03-08T02:25:55;21.50;;;19.20;;
9160;SDS011;4615;51.340;8.288;2024-03-08T02:28:22;22.77;;;20.17;;
9160;SDS011;4615;51.340;8.288;2024-03-08T02:30:50;22.35;;;19.95;;
9160;SDS011;4615;51.340;8.288;2024-03-08T02:33:19;22.85;;;20.42;;
9160;SDS011;4615;51.340;8.288;2024-03-08T02:35:46;22.35;;;19.95;;
9160;SDS011;4615;51.340;8.288;2024-03-08T02:38:14;23.97;;;20.20;;
9160;SDS011;4615;51.340;8.288;2024-03-08T02:40:41;22.33;;;19.92;;
9160;SDS011;4615;51.340;8.288;2024-03-08T02:43:07;22.75;;;20.35;;
9160;SDS011;4615;51.340;8.288;2024-03-08T02:45:34;22.05;;;19.70;;
9160;SDS011;4615;51.340;8.288;2024-03-08T02:48:01;22.98;;;20.42;;
9160;SDS011;4615;51.340;8.288;2024-03-08T02:50:27;22.33;;;19.92;;
9160;SDS011;4615;51.340;8.288;2024-03-08T02:52:53;21.90;;;19.60;;
9160;SDS011;4615;51.340;8.288;2024-03-08T02:55:21;23.33;;;20.55;;
9160;SDS011;4615;51.340;8.288;2024-03-08T02:57:48;22.58;;;20.17;;
9160;SDS011;4615;51.340;8.288;2024-03-08T03:00:14;23.37;;;20.60;;
9160;SDS011;4615;51.340;8.288;2024-03-08T03:02:41;22.42;;;20.13;;
9160;SDS011;4615;51.340;8.288;2024-03-08T03:05:07;22.80;;;20.40;;
9160;SDS011;4615;51.340;8.288;2024-03-08T03:07:34;22.83;;;20.42;;
9160;SDS011;4615;51.340;8.288;2024-03-08T03:10:01;23.55;;;21.15;;
9160;SDS011;4615;51.340;8.288;2024-03-08T03:12:29;22.70;;;20.33;;
9160;SDS011;4615;51.340;8.288;2024-03-08T03:14:56;23.50;;;20.73;;
9160;SDS011;4615;51.340;8.288;2024-03-08T03:17:22;23.83;;;21.20;;
9160;SDS011;4615;51.340;8.288;2024-03-08T03:19:49;24.45;;;21.80;;
9160;SDS011;4615;51.340;8.288;2024-03-08T03:22:16;23.58;;;21.08;;
9160;SDS011;4615;51.340;8.288;2024-03-08T03:24:43;23.50;;;21.00;;
9160;SDS011;4615;51.340;8.288;2024-03-08T03:27:09;23.00;;;20.20;;
9160;SDS011;4615;51.340;8.288;2024-03-08T03:29:38;23.77;;;20.73;;
9160;SDS011;4615;51.340;8.288;2024-03-08T03:32:04;22.92;;;20.42;;
9160;SDS011;4615;51.340;8.288;2024-03-08T03:34:32;23.80;;;21.30;;
9160;SDS011;4615;51.340;8.288;2024-03-08T03:37:01;24.45;;;21.80;;
9160;SDS011;4615;51.340;8.288;2024-03-08T03:39:27;22.67;;;20.27;;
9160;SDS011;4615;51.340;8.288;2024-03-08T03:41:56;25.02;;;22.33;;
9160;SDS011;4615;51.340;8.288;2024-03-08T03:44:23;24.27;;;21.27;;
9160;SDS011;4615;51.340;8.288;2024-03-08T03:46:51;23.83;;;21.23;;
9160;SDS011;4615;51.340;8.288;2024-03-08T03:49:17;24.17;;;21.58;;
9160;SDS011;4615;51.340;8.288;2024-03-08T03:51:43;23.92;;;21.15;;
9160;SDS011;4615;51.340;8.288;2024-03-08T03:54:10;23.05;;;20.65;;
9160;SDS011;4615;51.340;8.288;2024-03-08T03:56:37;23.95;;;21.35;;
9160;SDS011;4615;51.340;8.288;2024-03-08T03:59:04;23.67;;;21.17;;
9160;SDS011;4615;51.340;8.288;2024-03-08T04:01:31;23.30;;;20.90;;
9160;SDS011;4615;51.340;8.288;2024-03-08T04:03:59;23.42;;;20.92;;
9160;SDS011;4615;51.340;8.288;2024-03-08T04:06:25;23.90;;;21.40;;
9160;SDS011;4615;51.340;8.288;2024-03-08T04:08:51;24.08;;;21.48;;
9160;SDS011;4615;51.340;8.288;2024-03-08T04:11:18;23.83;;;21.33;;
9160;SDS011;4615;51.340;8.288;2024-03-08T04:13:44;23.85;;;21.27;;
9160;SDS011;4615;51.340;8.288;2024-03-08T04:16:11;24.98;;;22.38;;
9160;SDS011;4615;51.340;8.288;2024-03-08T04:18:37;24.35;;;21.75;;
9160;SDS011;4615;51.340;8.288;2024-03-08T04:21:04;24.33;;;21.73;;
9160;SDS011;4615;51.340;8.288;2024-03-08T04:23:33;25.35;;;22.23;;
9160;SDS011;4615;51.340;8.288;2024-03-08T04:26:00;26.73;;;22.90;;
9160;SDS011;4615;51.340;8.288;2024-03-08T04:28:27;26.03;;;23.07;;
9160;SDS011;4615;51.340;8.288;2024-03-08T04:30:53;24.73;;;22.10;;
9160;SDS011;4615;51.340;8.288;2024-03-08T04:33:19;26.67;;;23.40;;
9160;SDS011;4615;51.340;8.288;2024-03-08T04:35:46;26.35;;;23.27;;
9160;SDS011;4615;51.340;8.288;2024-03-08T04:38:14;25.88;;;23.08;;
9160;SDS011;4615;51.340;8.288;2024-03-08T04:40:41;25.40;;;22.52;;
9160;SDS011;4615;51.340;8.288;2024-03-08T04:43:08;26.75;;;23.50;;
9160;SDS011;4615;51.340;8.288;2024-03-08T04:45:35;26.58;;;23.50;;
9160;SDS011;4615;51.340;8.288;2024-03-08T04:48:02;26.65;;;23.75;;
9160;SDS011;4615;51.340;8.288;2024-03-08T04:50:28;25.30;;;22.53;;
9160;SDS011;4615;51.340;8.288;2024-03-08T04:52:55;26.73;;;23.73;;
9160;SDS011;4615;51.340;8.288;2024-03-08T04:55:22;26.40;;;23.30;;
9160;SDS011;4615;51.340;8.288;2024-03-08T04:57:50;27.63;;;24.48;;
9160;SDS011;4615;51.340;8.288;2024-03-08T05:00:16;27.15;;;24.25;;
9160;SDS011;4615;51.340;8.288;2024-03-08T05:02:43;27.00;;;24.17;;
9160;SDS011;4615;51.340;8.288;2024-03-08T05:05:09;26.67;;;23.10;;
9160;SDS011;4615;51.340;8.288;2024-03-08T05:07:37;27.40;;;24.50;;
9160;SDS011;4615;51.340;8.288;2024-03-08T05:10:04;26.67;;;23.77;;
9160;SDS011;4615;51.340;8.288;2024-03-08T05:12:33;26.00;;;23.10;;
9160;SDS011;4615;51.340;8.288;2024-03-08T05:14:59;25.93;;;23.13;;
9160;SDS011;4615;51.340;8.288;2024-03-08T05:17:25;27.02;;;24.00;;
9160;SDS011;4615;51.340;8.288;2024-03-08T05:19:53;27.60;;;24.00;;
9160;SDS011;4615;51.340;8.288;2024-03-08T05:22:19;27.17;;;23.70;;
9160;SDS011;4615;51.340;8.288;2024-03-08T05:24:45;25.95;;;23.17;;
9160;SDS011;4615;51.340;8.288;2024-03-08T05:27:12;26.55;;;23.40;;
9160;SDS011;4615;51.340;8.288;2024-03-08T05:29:39;27.05;;;24.13;;
9160;SDS011;4615;51.340;8.288;2024-03-08T05:32:06;26.83;;;23.17;;
9160;SDS011;4615;51.340;8.288;2024-03-08T05:34:33;28.30;;;23.98;;
9160;SDS011;4615;51.340;8.288;2024-03-08T05:36:59;26.33;;;23.52;;
9160;SDS011;4615;51.340;8.288;2024-03-08T05:39:26;27.13;;;24.23;;
9160;SDS011;4615;51.340;8.288;2024-03-08T05:41:52;28.48;;;24.75;;
9160;SDS011;4615;51.340;8.288;2024-03-08T05:44:20;26.17;;;23.38;;
9160;SDS011;4615;51.340;8.288;2024-03-08T05:46:48;27.05;;;24.15;;
9160;SDS011;4615;51.340;8.288;2024-03-08T05:49:15;26.88;;;23.80;;
9160;SDS011;4615;51.340;8.288;2024-03-08T05:51:42;27.38;;;24.35;;
9160;SDS011;4615;51.340;8.288;2024-03-08T05:54:09;27.17;;;24.20;;
9160;SDS011;4615;51.340;8.288;2024-03-08T05:56:36;28.85;;;25.30;;
9160;SDS011;4615;51.340;8.288;2024-03-08T05:59:03;27.27;;;24.30;;
9160;SDS011;4615;51.340;8.288;2024-03-08T06:01:29;28.08;;;24.92;;
9160;SDS011;4615;51.340;8.288;2024-03-08T06:03:58;29.65;;;24.85;;
9160;SDS011;4615;51.340;8.288;2024-03-08T06:06:24;28.33;;;25.20;;
9160;SDS011;4615;51.340;8.288;2024-03-08T06:08:51;29.70;;;25.40;;
9160;SDS011;4615;51.340;8.288;2024-03-08T06:11:18;26.70;;;23.90;;
9160;SDS011;4615;51.340;8.288;2024-03-08T06:13:45;28.13;;;24.60;;
9160;SDS011;4615;51.340;8.288;2024-03-08T06:16:12;27.23;;;24.23;;
9160;SDS011;4615;51.340;8.288;2024-03-08T06:18:38;28.48;;;25.42;;
9160;SDS011;4615;51.340;8.288;2024-03-08T06:21:07;29.15;;;24.77;;
9160;SDS011;4615;51.340;8.288;2024-03-08T06:23:36;29.25;;;26.05;;
9160;SDS011;4615;51.340;8.288;2024-03-08T06:26:03;28.98;;;25.73;;
9160;SDS011;4615;51.340;8.288;2024-03-08T06:28:30;28.55;;;25.50;;
9160;SDS011;4615;51.340;8.288;2024-03-08T06:30:57;29.75;;;25.52;;
9160;SDS011;4615;51.340;8.288;2024-03-08T06:33:23;28.75;;;24.88;;
9160;SDS011;4615;51.340;8.288;2024-03-08T06:35:51;29.45;;;26.20;;
9160;SDS011;4615;51.340;8.288;2024-03-08T06:38:19;30.73;;;26.20;;
9160;SDS011;4615;51.340;8.288;2024-03-08T06:40:45;28.48;;;25.38;;
9160;SDS011;4615;51.340;8.288;2024-03-08T06:43:13;28.65;;;25.55;;
9160;SDS011;4615;51.340;8.288;2024-03-08T06:45:41;30.98;;;26.27;;
9160;SDS011;4615;51.340;8.288;2024-03-08T06:48:07;30.67;;;26.50;;
9160;SDS011;4615;51.340;8.288;2024-03-08T06:50:34;32.07;;;27.77;;
9160;SDS011;4615;51.340;8.288;2024-03-08T06:53:01;30.95;;;27.15;;
9160;SDS011;4615;51.340;8.288;2024-03-08T06:55:29;30.45;;;26.90;;
9160;SDS011;4615;51.340;8.288;2024-03-08T06:57:56;30.48;;;26.55;;
9160;SDS011;4615;51.340;8.288;2024-03-08T07:00:23;29.33;;;25.60;;
9160;SDS011;4615;51.340;8.288;2024-03-08T07:02:52;29.80;;;26.65;;
9160;SDS011;4615;51.340;8.288;2024-03-08T07:05:18;29.13;;;25.55;;
9160;SDS011;4615;51.340;8.288;2024-03-08T07:07:45;29.52;;;26.25;;
9160;SDS011;4615;51.340;8.288;2024-03-08T07:10:13;29.13;;;25.73;;
9160;SDS011;4615;51.340;8.288;2024-03-08T07:12:42;28.73;;;25.23;;
9160;SDS011;4615;51.340;8.288;2024-03-08T07:15:08;29.77;;;26.38;;
9160;SDS011;4615;51.340;8.288;2024-03-08T07:17:38;31.58;;;26.25;;
9160;SDS011;4615;51.340;8.288;2024-03-08T07:20:05;29.55;;;25.13;;
9160;SDS011;4615;51.340;8.288;2024-03-08T07:22:36;30.40;;;25.33;;
9160;SDS011;4615;51.340;8.288;2024-03-08T07:25:04;30.80;;;26.55;;
9160;SDS011;4615;51.340;8.288;2024-03-08T07:27:46;29.77;;;26.40;;
9160;SDS011;4615;51.340;8.288;2024-03-08T07:30:12;28.48;;;25.38;;
9160;SDS011;4615;51.340;8.288;2024-03-08T07:32:59;28.20;;;25.17;;
9160;SDS011;4615;51.340;8.288;2024-03-08T07:35:24;27.60;;;24.63;;
9160;SDS011;4615;51.340;8.288;2024-03-08T07:37:51;28.23;;;24.70;;
9160;SDS011;4615;51.340;8.288;2024-03-08T07:40:20;29.00;;;24.88;;
9160;SDS011;4615;51.340;8.288;2024-03-08T07:42:47;28.45;;;25.17;;
9160;SDS011;4615;51.340;8.288;2024-03-08T07:45:14;26.27;;;23.35;;
9160;SDS011;4615;51.340;8.288;2024-03-08T07:47:41;28.53;;;25.00;;
9160;SDS011;4615;51.340;8.288;2024-03-08T07:50:07;28.95;;;24.35;;
9160;SDS011;4615;51.340;8.288;2024-03-08T07:52:34;25.98;;;22.77;;
9160;SDS011;4615;51.340;8.288;2024-03-08T07:55:01;27.58;;;24.20;;
9160;SDS011;4615;51.340;8.288;2024-03-08T07:57:28;26.67;;;23.63;;
9160;SDS011;4615;51.340;8.288;2024-03-08T07:59:56;26.73;;;23.40;;
9160;SDS011;4615;51.340;8.288;2024-03-08T08:02:23;23.88;;;21.27;;
9160;SDS011;4615;51.340;8.288;2024-03-08T08:04:49;22.33;;;19.63;;
9160;SDS011;4615;51.340;8.288;2024-03-08T08:07:15;20.83;;;18.52;;
9160;SDS011;4615;51.340;8.288;2024-03-08T08:09:42;20.88;;;18.45;;
9160;SDS011;4615;51.340;8.288;2024-03-08T08:12:08;20.20;;;18.00;;
9160;SDS011;4615;51.340;8.288;2024-03-08T08:14:36;21.38;;;18.17;;
9160;SDS011;4615;51.340;8.288;2024-03-08T08:17:07;20.30;;;17.57;;
9160;SDS011;4615;51.340;8.288;2024-03-08T08:19:34;19.05;;;17.08;;
9160;SDS011;4615;51.340;8.288;2024-03-08T08:22:01;20.02;;;17.25;;
9160;SDS011;4615;51.340;8.288;2024-03-08T08:24:28;18.70;;;16.70;;
9160;SDS011;4615;51.340;8.288;2024-03-08T08:26:54;19.73;;;16.80;;
9160;SDS011;4615;51.340;8.288;2024-03-08T08:29:21;19.35;;;16.55;;
9160;SDS011;4615;51.340;8.288;2024-03-08T08:31:47;18.00;;;16.10;;
9160;SDS011;4615;51.340;8.288;2024-03-08T08:34:16;17.35;;;15.48;;
9160;SDS011;4615;51.340;8.288;2024-03-08T08:36:44;17.38;;;15.52;;
9160;SDS011;4615;51.340;8.288;2024-03-08T08:39:10;17.67;;;15.63;;
9160;SDS011;4615;51.340;8.288;2024-03-08T08:41:38;18.15;;;16.13;;
9160;SDS011;4615;51.340;8.288;2024-03-08T08:44:06;16.63;;;14.90;;
9160;SDS011;4615;51.340;8.288;2024-03-08T08:46:35;16.27;;;14.57;;
9160;SDS011;4615;51.340;8.288;2024-03-08T08:49:02;17.10;;;14.93;;
9160;SDS011;4615;51.340;8.288;2024-03-08T08:51:30;16.77;;;14.48;;
9160;SDS011;4615;51.340;8.288;2024-03-08T08:53:58;15.90;;;14.13;;
9160;SDS011;4615;51.340;8.288;2024-03-08T08:56:25;15.77;;;14.10;;
9160;SDS011;4615;51.340;8.288;2024-03-08T08:58:51;16.58;;;14.88;;
9160;SDS011;4615;51.340;8.288;2024-03-08T09:01:18;16.50;;;14.77;;
9160;SDS011;4615;51.340;8.288;2024-03-08T09:03:45;17.45;;;14.88;;
9160;SDS011;4615;51.340;8.288;2024-03-08T09:06:12;17.00;;;15.20;;
9160;SDS011;4615;51.340;8.288;2024-03-08T09:08:40;16.43;;;14.60;;
9160;SDS011;4615;51.340;8.288;2024-03-08T09:11:06;16.60;;;14.90;;
9160;SDS011;4615;51.340;8.288;2024-03-08T09:13:33;16.27;;;14.52;;
9160;SDS011;4615;51.340;8.288;2024-03-08T09:15:59;16.48;;;14.88;;
9160;SDS011;4615;51.340;8.288;2024-03-08T09:18:26;15.95;;;14.35;;
9160;SDS011;4615;51.340;8.288;2024-03-08T09:20:52;15.63;;;13.93;;
9160;SDS011;4615;51.340;8.288;2024-03-08T09:23:19;16.10;;;14.52;;
9160;SDS011;4615;51.340;8.288;2024-03-08T09:25:47;15.73;;;14.05;;
9160;SDS011;4615;51.340;8.288;2024-03-08T09:28:14;16.75;;;15.05;;
9160;SDS011;4615;51.340;8.288;2024-03-08T09:30:41;16.43;;;14.73;;
9160;SDS011;4615;51.340;8.288;2024-03-08T09:33:08;16.48;;;14.65;;
9160;SDS011;4615;51.340;8.288;2024-03-08T09:35:35;15.88;;;14.27;;
9160;SDS011;4615;51.340;8.288;2024-03-08T09:38:01;17.05;;;15.30;;
9160;SDS011;4615;51.340;8.288;2024-03-08T09:40:29;15.30;;;13.80;;
9160;SDS011;4615;51.340;8.288;2024-03-08T09:42:57;16.58;;;14.98;;
9160;SDS011;4615;51.340;8.288;2024-03-08T09:45:23;16.55;;;14.90;;
9160;SDS011;4615;51.340;8.288;2024-03-08T09:47:51;15.10;;;13.63;;
9160;SDS011;4615;51.340;8.288;2024-03-08T09:50:18;15.68;;;14.18;;
9160;SDS011;4615;51.340;8.288;2024-03-08T09:52:46;14.52;;;13.13;;
9160;SDS011;4615;51.340;8.288;2024-03-08T09:55:13;15.13;;;13.53;;
9160;SDS011;4615;51.340;8.288;2024-03-08T09:57:39;15.00;;;13.50;;
9160;SDS011;4615;51.340;8.288;2024-03-08T10:00:09;15.10;;;13.60;;
9160;SDS011;4615;51.340;8.288;2024-03-08T10:02:49;14.43;;;12.93;;
9160;SDS011;4615;51.340;8.288;2024-03-08T10:05:17;14.50;;;13.00;;
9160;SDS011;4615;51.340;8.288;2024-03-08T10:07:44;14.80;;;13.30;;
9160;SDS011;4615;51.340;8.288;2024-03-08T10:10:10;14.60;;;13.10;;
9160;SDS011;4615;51.340;8.288;2024-03-08T10:12:37;14.32;;;12.93;;
9160;SDS011;4615;51.340;8.288;2024-03-08T10:15:05;14.23;;;12.82;;
9160;SDS011;4615;51.340;8.288;2024-03-08T10:17:34;14.20;;;12.90;;
9160;SDS011;4615;51.340;8.288;2024-03-08T10:20:00;15.05;;;13.45;;
9160;SDS011;4615;51.340;8.288;2024-03-08T10:22:28;14.40;;;13.00;;
9160;SDS011;4615;51.340;8.288;2024-03-08T10:24:56;14.83;;;13.43;;
9160;SDS011;4615;51.340;8.288;2024-03-08T10:27:23;14.43;;;13.02;;
9160;SDS011;4615;51.340;8.288;2024-03-08T10:29:51;14.73;;;13.32;;
9160;SDS011;4615;51.340;8.288;2024-03-08T10:32:17;14.87;;;13.37;;
9160;SDS011;4615;51.340;8.288;2024-03-08T10:34:45;14.15;;;12.75;;
9160;SDS011;4615;51.340;8.288;2024-03-08T10:37:15;13.85;;;12.45;;
9160;SDS011;4615;51.340;8.288;2024-03-08T10:39:44;13.85;;;12.50;;
9160;SDS011;4615;51.340;8.288;2024-03-08T10:42:14;13.40;;;12.10;;
9160;SDS011;4615;51.340;8.288;2024-03-08T10:44:49;13.60;;;12.30;;
9160;SDS011;4615;51.340;8.288;2024-03-08T10:47:18;13.80;;;12.40;;
9160;SDS011;4615;51.340;8.288;2024-03-08T10:49:50;12.55;;;11.35;;
9160;SDS011;4615;51.340;8.288;2024-03-08T10:52:17;12.85;;;11.60;;
9160;SDS011;4615;51.340;8.288;2024-03-08T10:54:44;13.23;;;11.93;;
9160;SDS011;4615;51.340;8.288;2024-03-08T10:57:11;13.98;;;12.63;;
9160;SDS011;4615;51.340;8.288;2024-03-08T10:59:38;13.05;;;11.85;;
9160;SDS011;4615;51.340;8.288;2024-03-08T11:02:05;13.15;;;11.85;;
9160;SDS011;4615;51.340;8.288;2024-03-08T11:04:31;12.23;;;11.02;;
9160;SDS011;4615;51.340;8.288;2024-03-08T11:07:01;12.02;;;10.85;;
9160;SDS011;4615;51.340;8.288;2024-03-08T11:09:31;11.75;;;10.65;;
9160;SDS011;4615;51.340;8.288;2024-03-08T11:14:43;11.27;;;10.27;;
9160;SDS011;4615;51.340;8.288;2024-03-08T11:17:10;11.93;;;10.82;;
9160;SDS011;4615;51.340;8.288;2024-03-08T11:19:36;12.70;;;11.40;;
9160;SDS011;4615;51.340;8.288;2024-03-08T11:22:05;12.45;;;11.25;;
9160;SDS011;4615;51.340;8.288;2024-03-08T11:24:38;12.30;;;11.10;;
9160;SDS011;4615;51.340;8.288;2024-03-08T11:27:09;12.88;;;11.68;;
9160;SDS011;4615;51.340;8.288;2024-03-08T11:29:37;12.82;;;11.60;;
9160;SDS011;4615;51.340;8.288;2024-03-08T11:32:05;13.32;;;12.02;;
9160;SDS011;4615;51.340;8.288;2024-03-08T11:34:33;13.55;;;12.25;;
9160;SDS011;4615;51.340;8.288;2024-03-08T11:36:59;13.60;;;12.27;;
9160;SDS011;4615;51.340;8.288;2024-03-08T11:39:27;11.85;;;10.75;;
9160;SDS011;4615;51.340;8.288;2024-03-08T11:41:53;12.50;;;11.30;;
9160;SDS011;4615;51.340;8.288;2024-03-08T11:44:20;12.77;;;11.57;;
9160;SDS011;4615;51.340;8.288;2024-03-08T11:46:46;12.30;;;11.10;;
9160;SDS011;4615;51.340;8.288;2024-03-08T11:49:13;12.60;;;11.20;;
9160;SDS011;4615;51.340;8.288;2024-03-08T11:51:39;12.57;;;11.38;;
9160;SDS011;4615;51.340;8.288;2024-03-08T11:54:06;12.10;;;11.00;;
9160;SDS011;4615;51.340;8.288;2024-03-08T11:56:38;12.52;;;11.23;;
9160;SDS011;4615;51.340;8.288;2024-03-08T11:59:06;12.68;;;11.48;;
9160;SDS011;4615;51.340;8.288;2024-03-08T12:01:37;12.50;;;11.30;;
9160;SDS011;4615;51.340;8.288;2024-03-08T12:04:04;12.02;;;10.93;;
9160;SDS011;4615;51.340;8.288;2024-03-08T12:06:36;12.18;;;11.07;;
9160;SDS011;4615;51.340;8.288;2024-03-08T12:09:04;12.60;;;11.30;;
9160;SDS011;4615;51.340;8.288;2024-03-08T12:11:30;13.50;;;12.20;;
9160;SDS011;4615;51.340;8.288;2024-03-08T12:13:58;13.27;;;12.05;;
9160;SDS011;4615;51.340;8.288;2024-03-08T12:16:24;13.40;;;12.10;;
9160;SDS011;4615;51.340;8.288;2024-03-08T12:18:51;13.30;;;12.00;;
9160;SDS011;4615;51.340;8.288;2024-03-08T12:21:18;13.93;;;12.63;;
9160;SDS011;4615;51.340;8.288;2024-03-08T12:23:46;13.50;;;12.20;;
9160;SDS011;4615;51.340;8.288;2024-03-08T12:26:16;14.00;;;12.60;;
9160;SDS011;4615;51.340;8.288;2024-03-08T12:28:43;14.32;;;12.93;;
9160;SDS011;4615;51.340;8.288;2024-03-08T12:31:12;14.00;;;12.70;;
9160;SDS011;4615;51.340;8.288;2024-03-08T12:33:47;14.00;;;12.57;;
9160;SDS011;4615;51.340;8.288;2024-03-08T12:36:14;14.63;;;13.23;;
9160;SDS011;4615;51.340;8.288;2024-03-08T12:38:43;14.63;;;13.13;;
9160;SDS011;4615;51.340;8.288;2024-03-08T12:41:09;14.57;;;13.18;;
9160;SDS011;4615;51.340;8.288;2024-03-08T12:43:35;14.75;;;13.35;;
9160;SDS011;4615;51.340;8.288;2024-03-08T12:46:02;14.05;;;12.65;;
9160;SDS011;4615;51.340;8.288;2024-03-08T12:48:35;14.82;;;13.32;;
9160;SDS011;4615;51.340;8.288;2024-03-08T12:51:05;14.85;;;13.45;;
9160;SDS011;4615;51.340;8.288;2024-03-08T12:53:32;14.13;;;12.77;;
9160;SDS011;4615;51.340;8.288;2024-03-08T12:55:58;14.73;;;13.32;;
9160;SDS011;4615;51.340;8.288;2024-03-08T12:58:25;14.38;;;12.98;;
9160;SDS011;4615;51.340;8.288;2024-03-08T13:00:52;14.02;;;12.73;;
9160;SDS011;4615;51.340;8.288;2024-03-08T13:03:18;14.85;;;13.35;;
9160;SDS011;4615;51.340;8.288;2024-03-08T13:05:46;15.10;;;13.60;;
9160;SDS011;4615;51.340;8.288;2024-03-08T13:08:13;15.07;;;13.52;;
9160;SDS011;4615;51.340;8.288;2024-03-08T13:10:40;14.68;;;13.27;;
9160;SDS011;4615;51.340;8.288;2024-03-08T13:13:08;14.70;;;13.30;;
9160;SDS011;4615;51.340;8.288;2024-03-08T13:15:35;14.50;;;13.13;;
9160;SDS011;4615;51.340;8.288;2024-03-08T13:18:01;14.73;;;13.32;;
9160;SDS011;4615;51.340;8.288;2024-03-08T13:20:28;15.10;;;13.60;;
9160;SDS011;4615;51.340;8.288;2024-03-08T13:22:56;13.82;;;12.60;;
9160;SDS011;4615;51.340;8.288;2024-03-08T13:25:25;14.80;;;13.40;;
9160;SDS011;4615;51.340;8.288;2024-03-08T13:27:51;14.80;;;13.40;;
9160;SDS011;4615;51.340;8.288;2024-03-08T13:30:21;15.07;;;13.60;;
9160;SDS011;4615;51.340;8.288;2024-03-08T13:32:51;15.13;;;13.70;;
9160;SDS011;4615;51.340;8.288;2024-03-08T13:35:17;14.48;;;13.07;;
9160;SDS011;4615;51.340;8.288;2024-03-08T13:37:49;15.75;;;13.68;;
9160;SDS011;4615;51.340;8.288;2024-03-08T13:40:17;15.13;;;13.73;;
9160;SDS011;4615;51.340;8.288;2024-03-08T13:42:45;15.10;;;13.60;;
9160;SDS011;4615;51.340;8.288;2024-03-08T13:45:11;14.73;;;13.32;;
9160;SDS011;4615;51.340;8.288;2024-03-08T13:47:38;15.98;;;14.38;;
9160;SDS011;4615;51.340;8.288;2024-03-08T13:50:06;15.38;;;13.88;;
9160;SDS011;4615;51.340;8.288;2024-03-08T13:52:36;15.40;;;13.90;;
9160;SDS011;4615;51.340;8.288;2024-03-08T13:55:03;14.98;;;13.48;;
9160;SDS011;4615;51.340;8.288;2024-03-08T13:57:31;15.52;;;14.02;;
9160;SDS011;4615;51.340;8.288;2024-03-08T13:59:57;14.55;;;13.05;;
9160;SDS011;4615;51.340;8.288;2024-03-08T14:02:24;14.75;;;13.25;;
9160;SDS011;4615;51.340;8.288;2024-03-08T14:04:53;15.05;;;13.65;;
9160;SDS011;4615;51.340;8.288;2024-03-08T14:07:19;15.10;;;13.65;;
9160;SDS011;4615;51.340;8.288;2024-03-08T14:09:45;14.90;;;13.40;;
9160;SDS011;4615;51.340;8.288;2024-03-08T14:12:12;15.40;;;13.80;;
9160;SDS011;4615;51.340;8.288;2024-03-08T14:14:41;14.05;;;12.65;;
9160;SDS011;4615;51.340;8.288;2024-03-08T14:17:09;14.50;;;13.07;;
9160;SDS011;4615;51.340;8.288;2024-03-08T14:19:36;14.13;;;12.73;;
9160;SDS011;4615;51.340;8.288;2024-03-08T14:22:04;14.23;;;12.82;;
9160;SDS011;4615;51.340;8.288;2024-03-08T14:24:30;14.93;;;13.43;;
9160;SDS011;4615;51.340;8.288;2024-03-08T14:27:00;14.45;;;13.05;;
9160;SDS011;4615;51.340;8.288;2024-03-08T14:29:28;15.95;;;14.25;;
9160;SDS011;4615;51.340;8.288;2024-03-08T14:31:58;14.98;;;13.48;;
9160;SDS011;4615;51.340;8.288;2024-03-08T14:34:26;15.00;;;13.60;;
9160;SDS011;4615;51.340;8.288;2024-03-08T14:36:54;13.85;;;12.45;;
9160;SDS011;4615;51.340;8.288;2024-03-08T14:39:21;14.48;;;12.98;;
9160;SDS011;4615;51.340;8.288;2024-03-08T14:41:51;14.15;;;12.75;;
9160;SDS011;4615;51.340;8.288;2024-03-08T14:44:18;14.50;;;13.00;;
9160;SDS011;4615;51.340;8.288;2024-03-08T14:46:45;14.43;;;13.00;;
9160;SDS011;4615;51.340;8.288;2024-03-08T14:49:12;14.93;;;13.47;;
9160;SDS011;4615;51.340;8.288;2024-03-08T14:51:39;14.13;;;12.75;;